Time;durP1;ratioP1;P1;durP2;ratioP2;P2;SDS_P1;SDS_P2;PMS_P1;PMS_P2;Temp;Humidity;BMP_temperature;BMP_pressure;BME280_temperature;BME280_humidity;BME280_pressure;Samples;Min_cycle;Max_cycle;Signal;HPM_P1;HPM_P2
2022/12/16 00:00:21;;;;;;;161.27;74.17;;;;;;;4.90;98.04;94692.28;4976626;28;20180;-76
2022/12/16 00:02:47;;;;;;;146.27;72.17;;;;;;;4.89;97.92;94679.44;4976652;28;20185;-76
2022/12/16 00:05:12;;;;;;;149.53;73.00;;;;;;;4.87;98.15;94670.97;4984975;28;20173;-76
2022/12/16 00:07:38;;;;;;;150.37;76.50;;;;;;;5.02;97.95;94686.59;4991219;28;20177;-76
2022/12/16 00:10:03;;;;;;;153.00;71.60;;;;;;;5.00;97.58;94684.19;4991708;28;20207;-77
2022/12/16 00:12:29;;;;;;;155.97;73.73;;;;;;;5.04;97.87;94671.59;4981619;28;20173;-76
2022/12/16 00:14:54;;;;;;;143.50;69.00;;;;;;;5.05;98.20;94668.81;4979795;28;20237;-76
2022/12/16 00:17:20;;;;;;;149.13;80.78;;;;;;;4.89;97.67;94650.75;4991377;28;20477;-76
2022/12/16 00:19:46;;;;;;;144.77;74.57;;;;;;;5.03;98.09;94681.22;4993130;28;20179;-76
2022/12/16 00:22:11;;;;;;;144.80;71.13;;;;;;;5.06;98.09;94675.66;4982146;28;20188;-76
2022/12/16 00:24:36;;;;;;;136.97;69.93;;;;;;;5.03;97.90;94664.75;4987665;28;20660;-77
2022/12/16 00:27:02;;;;;;;134.77;67.40;;;;;;;5.07;97.45;94671.25;4975872;28;20569;-77
2022/12/16 00:29:27;;;;;;;133.40;66.33;;;;;;;5.11;97.76;94664.66;4985062;28;20343;-76
2022/12/16 00:31:53;;;;;;;133.87;66.97;;;;;;;4.88;97.36;94644.72;4994334;28;20188;-76
2022/12/16 00:34:18;;;;;;;142.47;67.80;;;;;;;5.05;97.60;94666.19;4984075;28;20693;-76
2022/12/16 00:36:44;;;;;;;153.03;79.40;;;;;;;4.91;98.00;94643.56;4973507;28;20421;-76
2022/12/16 00:39:10;;;;;;;140.73;72.33;;;;;;;5.12;97.78;94674.91;4980925;28;20220;-76
2022/12/16 00:41:36;;;;;;;145.15;77.68;;;;;;;5.12;97.68;94674.91;4970824;28;20441;-76
2022/12/16 00:44:01;;;;;;;136.43;68.72;;;;;;;5.09;97.95;94666.66;4987618;28;20394;-76
2022/12/16 00:46:27;;;;;;;149.73;77.33;;;;;;;5.07;97.77;94674.66;4992956;28;20448;-76
2022/12/16 00:48:52;;;;;;;137.57;67.70;;;;;;;5.10;98.20;94660.44;4982667;28;20189;-76
2022/12/16 00:51:17;;;;;;;131.37;64.50;;;;;;;5.12;97.91;94658.44;4981334;28;20261;-76
2022/12/16 00:53:43;;;;;;;152.80;72.50;;;;;;;5.24;97.63;94670.03;4979222;28;20438;-76
2022/12/16 00:56:10;;;;;;;144.93;66.23;;;;;;;5.24;97.32;94685.69;4986715;28;20197;-76
2022/12/16 00:58:36;;;;;;;159.43;74.45;;;;;;;5.24;97.44;94646.56;4991707;28;20416;-76
2022/12/16 01:01:03;;;;;;;157.93;67.55;;;;;;;5.25;97.40;94682.09;4990158;28;20468;-76
2022/12/16 01:03:29;;;;;;;159.90;76.28;;;;;;;4.69;98.45;94602.75;4972470;28;20900;-76
2022/12/16 01:05:54;;;;;;;153.43;68.50;;;;;;;4.69;99.19;94647.88;4985456;28;20423;-76
2022/12/16 01:08:20;;;;;;;162.83;72.00;;;;;;;4.83;99.52;94639.25;4991765;28;20404;-76
2022/12/16 01:10:50;;;;;;;197.40;73.53;;;;;;;4.68;99.66;94677.53;4991425;28;20411;-76
2022/12/16 01:13:16;;;;;;;133.63;58.10;;;;;;;4.49;100.00;94613.72;4982107;28;20656;-76
2022/12/16 01:15:42;;;;;;;133.47;55.67;;;;;;;4.68;100.00;94681.94;4974145;28;20193;-76
2022/12/16 01:18:07;;;;;;;148.53;64.80;;;;;;;4.55;100.00;94659.09;4983436;28;20429;-76
2022/12/16 01:20:33;;;;;;;218.80;68.67;;;;;;;4.63;100.00;94679.88;4992303;28;20489;-76
2022/12/16 01:22:58;;;;;;;155.70;68.27;;;;;;;4.58;100.00;94658.75;4991697;28;20916;-77
2022/12/16 01:25:24;;;;;;;186.87;60.13;;;;;;;4.67;100.00;94680.34;4991950;28;20181;-76
2022/12/16 01:27:49;;;;;;;155.17;58.60;;;;;;;4.70;100.00;94664.31;4979327;28;20186;-77
2022/12/16 01:30:15;;;;;;;147.03;58.67;;;;;;;4.77;100.00;94660.81;4984095;28;20169;-77
2022/12/16 01:32:40;;;;;;;168.23;60.87;;;;;;;4.77;100.00;94650.38;4993169;28;20181;-77
2022/12/16 01:35:06;;;;;;;280.37;75.77;;;;;;;4.58;100.00;94655.34;4991115;28;20412;-76
2022/12/16 01:37:31;;;;;;;223.53;62.73;;;;;;;4.60;100.00;94651.53;4983731;28;20173;-76
2022/12/16 01:39:57;;;;;;;234.47;72.33;;;;;;;4.45;100.00;94640.31;4991453;28;20411;-76
2022/12/16 01:42:22;;;;;;;229.50;68.60;;;;;;;4.53;100.00;94650.66;4975829;28;20448;-76
2022/12/16 01:44:50;;;;;;;155.80;60.03;;;;;;;4.53;100.00;94645.44;4973325;28;20588;-76
2022/12/16 01:47:19;;;;;;;343.88;75.82;;;;;;;4.47;100.00;94643.56;4972671;28;20436;-76
2022/12/16 01:50:09;;;;;;;141.40;58.83;;;;;;;4.53;100.00;94635.81;4973175;28;20192;-76
2022/12/16 01:52:42;;;;;;;218.17;63.03;;;;;;;4.62;100.00;94633.94;4991708;28;20177;-76
2022/12/16 01:55:42;;;;;;;179.07;56.80;;;;;;;4.61;100.00;94642.75;4992675;28;20181;-76
2022/12/16 01:58:20;;;;;;;151.63;55.30;;;;;;;4.67;100.00;94652.44;4976593;28;20727;-76
2022/12/16 02:00:47;;;;;;;139.70;52.30;;;;;;;4.67;100.00;94631.59;4990307;28;20169;-76
2022/12/16 02:03:13;;;;;;;238.38;57.72;;;;;;;4.74;100.00;94642.13;4976080;28;20822;-76
2022/12/16 02:05:41;;;;;;;137.82;52.05;;;;;;;4.62;100.00;94618.28;4980587;28;20414;-76
2022/12/16 02:08:13;;;;;;;145.13;43.30;;;;;;;4.76;100.00;94627.91;4968261;28;20684;-76
2022/12/16 02:10:41;;;;;;;108.77;40.33;;;;;;;4.77;100.00;94603.44;4972718;28;20174;-76
2022/12/16 02:13:24;;;;;;;192.02;49.70;;;;;;;4.77;100.00;94602.63;4973849;28;20520;-76
2022/12/16 02:16:10;;;;;;;116.87;40.07;;;;;;;4.81;100.00;94607.31;4976376;28;20256;-76
2022/12/16 02:18:42;;;;;;;99.30;38.27;;;;;;;4.84;100.00;94609.56;4972794;28;20169;-76
2022/12/16 02:21:12;;;;;;;87.43;32.97;;;;;;;4.83;100.00;94604.53;4986531;28;20180;-76
2022/12/16 02:24:04;;;;;;;88.97;37.90;;;;;;;4.87;100.00;94611.00;4977865;28;20194;-76
2022/12/16 02:26:54;;;;;;;93.20;36.43;;;;;;;4.88;100.00;94608.22;4972724;28;20180;-76
2022/12/16 02:29:25;;;;;;;96.97;37.17;;;;;;;4.85;100.00;94611.19;4983983;28;20193;-76
2022/12/16 02:32:06;;;;;;;96.27;37.60;;;;;;;4.84;100.00;94606.94;4977655;28;20269;-77
2022/12/16 02:35:07;;;;;;;103.07;35.70;;;;;;;4.72;100.00;94577.13;4976794;28;20696;-77
2022/12/16 02:38:02;;;;;;;83.57;34.50;;;;;;;4.95;100.00;94613.50;4969382;28;20656;-76
2022/12/16 02:40:49;;;;;;;87.00;36.17;;;;;;;4.98;100.00;94620.97;4966725;28;20178;-77
2022/12/16 02:43:29;;;;;;;97.43;40.43;;;;;;;4.92;100.00;94621.72;4989989;28;20615;-77
2022/12/16 02:45:54;;;;;;;97.93;42.20;;;;;;;4.98;100.00;94620.16;4967377;28;20197;-77
2022/12/16 02:48:20;;;;;;;91.40;40.73;;;;;;;4.96;100.00;94625.56;4986288;28;20668;-77
2022/12/16 02:50:49;;;;;;;87.50;38.60;;;;;;;4.90;99.78;94614.06;4973584;28;20584;-77
2022/12/16 02:53:17;;;;;;;86.67;40.40;;;;;;;4.82;99.29;94648.06;4978568;28;20190;-77
2022/12/16 02:56:17;;;;;;;78.93;39.78;;;;;;;4.77;99.72;94667.81;4970743;28;20424;-76
2022/12/16 02:59:07;;;;;;;99.78;48.60;;;;;;;4.69;100.00;94647.06;4970630;28;20424;-76
2022/12/16 03:02:00;;;;;;;89.95;42.90;;;;;;;4.68;99.83;94663.69;4972043;28;20464;-77
2022/12/16 03:04:51;;;;;;;73.73;37.63;;;;;;;4.62;100.00;94652.19;4987736;28;20173;-76
2022/12/16 03:07:21;;;;;;;69.03;33.77;;;;;;;4.68;100.00;94632.41;4979843;28;20176;-77
2022/12/16 03:09:49;;;;;;;59.77;29.03;;;;;;;4.70;99.77;94627.81;4983199;28;20178;-77
2022/12/16 03:12:18;;;;;;;47.13;24.20;;;;;;;4.69;99.71;94632.22;4985036;28;20173;-76
2022/12/16 03:14:47;;;;;;;42.07;20.53;;;;;;;4.74;99.39;94619.47;4985838;28;20554;-76
2022/12/16 03:17:15;;;;;;;32.60;17.67;;;;;;;4.72;99.52;94611.03;4993154;28;20516;-77
2022/12/16 03:19:45;;;;;;;44.65;21.10;;;;;;;4.78;99.65;94605.06;4978458;28;20480;-77
2022/12/16 03:22:19;;;;;;;36.17;18.20;;;;;;;4.53;99.30;94580.28;4976246;28;20181;-77
2022/12/16 03:24:45;;;;;;;37.80;18.27;;;;;;;4.68;99.33;94616.75;4990891;28;20207;-77
2022/12/16 03:27:25;;;;;;;36.20;17.77;;;;;;;4.66;99.34;94610.94;4984446;28;20200;-76
2022/12/16 03:30:05;;;;;;;35.77;17.77;;;;;;;4.61;99.59;94589.81;4977060;28;20256;-76
2022/12/16 03:32:58;;;;;;;38.90;18.27;;;;;;;4.66;100.00;94609.16;4975854;28;20249;-76
2022/12/16 03:35:24;;;;;;;41.00;17.30;;;;;;;4.66;99.57;94609.16;4972246;28;20182;-77
2022/12/16 03:37:54;;;;;;;60.43;27.47;;;;;;;4.68;99.49;94632.41;4991696;28;20170;-77
2022/12/16 03:40:20;;;;;;;55.90;26.20;;;;;;;4.70;99.16;94643.47;4995588;28;20589;-77
2022/12/16 03:42:47;;;;;;;62.63;27.67;;;;;;;4.69;98.57;94642.66;4995433;28;20209;-77
2022/12/16 03:45:21;;;;;;;66.77;30.73;;;;;;;4.69;98.58;94634.03;4995279;28;20708;-77
2022/12/16 03:47:51;;;;;;;76.07;33.38;;;;;;;4.68;98.49;94640.22;4987375;28;20421;-77
2022/12/16 03:50:20;;;;;;;53.77;28.80;;;;;;;4.63;98.27;94635.56;4988123;28;20177;-77
2022/12/16 03:52:46;;;;;;;61.80;32.70;;;;;;;4.41;97.88;94610.41;4993203;28;20454;-77
2022/12/16 03:55:11;;;;;;;65.93;31.33;;;;;;;4.43;97.85;94624.84;4987751;28;20507;-77
2022/12/16 03:57:37;;;;;;;53.42;24.75;;;;;;;4.35;98.02;94632.75;4977232;28;20327;-77
2022/12/16 04:00:04;;;;;;;54.37;27.87;;;;;;;4.40;98.38;94655.69;4974334;28;20921;-77
2022/12/16 04:02:29;;;;;;;57.83;29.13;;;;;;;4.29;98.56;94653.50;4988498;28;20182;-77
2022/12/16 04:04:54;;;;;;;66.00;28.87;;;;;;;4.37;98.79;94650.81;4979698;28;20746;-77
2022/12/16 04:07:20;;;;;;;67.00;34.17;;;;;;;4.28;99.04;94644.06;4993914;28;20415;-77
2022/12/16 04:09:47;;;;;;;63.97;29.40;;;;;;;4.32;98.96;94614.06;4995044;28;20173;-77
2022/12/16 04:25:58;;;;;;;54.73;26.63;;;;;;;4.53;99.03;94633.22;4965981;28;20195;-75
2022/12/16 04:28:23;;;;;;;51.08;28.50;;;;;;;4.49;99.25;94633.78;4972965;28;20413;-75
2022/12/16 04:30:49;;;;;;;52.50;26.97;;;;;;;4.58;99.47;94637.09;4974267;28;20268;-76
